Time;durP1;ratioP1;P1;durP2;ratioP2;P2;SDS_P1;SDS_P2;PMS_P1;PMS_P2;Temp;Humidity;BMP_temperature;BMP_pressure;BME280_temperature;BME280_humidity;BME280_pressure;Samples;Min_cycle;Max_cycle;Signal;HPM_P1;HPM_P2
2023/09/26 00:01:07;;;;;;;5.15;4.47;;;;;;;;;;5054220;28;20029;-58
2023/09/26 00:03:33;;;;;;;5.28;4.28;;;;;;;;;;5053289;28;20040;-57
2023/09/26 00:05:59;;;;;;;5.63;4.47;;;;;;;;;;5053345;28;20497;-58
2023/09/26 00:08:25;;;;;;;4.97;4.47;;;;;;;;;;5053362;28;20025;-58
2023/09/26 00:10:51;;;;;;;6.50;4.95;;;;;;;;;;5053399;28;20025;-57
2023/09/26 00:13:17;;;;;;;5.53;4.93;;;;;;;;;;5052999;28;20467;-58
2023/09/26 00:15:43;;;;;;;5.65;5.05;;;;;;;;;;5053286;28;20037;-58
2023/09/26 00:18:09;;;;;;;7.00;5.70;;;;;;;;;;5053479;28;20516;-57
2023/09/26 00:20:38;;;;;;;5.38;4.38;;;;;;;;;;5053822;28;20085;-57
2023/09/26 00:23:04;;;;;;;5.65;4.72;;;;;;;;;;5053588;28;20076;-58
2023/09/26 00:25:30;;;;;;;6.78;4.60;;;;;;;;;;5052845;28;20025;-58
2023/09/26 00:27:57;;;;;;;5.88;4.43;;;;;;;;;;5053651;28;20049;-57
2023/09/26 00:30:26;;;;;;;5.53;4.80;;;;;;;;;;5053064;28;20090;-58
2023/09/26 00:32:52;;;;;;;7.28;5.57;;;;;;;;;;5052782;28;20029;-58
2023/09/26 00:35:19;;;;;;;5.10;4.60;;;;;;;;;;5052900;28;20355;-58
2023/09/26 00:37:50;;;;;;;5.90;4.93;;;;;;;;;;5054235;28;20036;-57
2023/09/26 00:40:20;;;;;;;5.22;4.72;;;;;;;;;;5056962;28;20025;-58
2023/09/26 00:42:46;;;;;;;5.18;4.68;;;;;;;;;;5056472;28;20025;-57
2023/09/26 00:45:13;;;;;;;6.57;4.40;;;;;;;;;;5056867;28;20025;-58
2023/09/26 00:47:42;;;;;;;6.15;5.28;;;;;;;;;;5056838;28;20060;-57
2023/09/26 00:50:10;;;;;;;4.78;4.20;;;;;;;;;;5056814;28;20025;-57
2023/09/26 00:52:37;;;;;;;5.85;5.18;;;;;;;;;;5056652;28;20025;-57
2023/09/26 00:55:04;;;;;;;5.05;4.55;;;;;;;;;;5056661;28;20021;-58
2023/09/26 00:57:33;;;;;;;6.05;4.80;;;;;;;;;;5056627;28;20375;-58
2023/09/26 01:00:00;;;;;;;5.85;5.25;;;;;;;;;;5056907;28;20029;-58
2023/09/26 01:02:27;;;;;;;6.43;5.13;;;;;;;;;;5056941;28;20029;-58
2023/09/26 01:04:53;;;;;;;7.20;5.50;;;;;;;;;;5056974;28;20124;-58
2023/09/26 01:07:19;;;;;;;6.47;5.30;;;;;;;;;;5057201;28;20333;-58
2023/09/26 01:09:45;;;;;;;6.13;5.03;;;;;;;;;;5057006;28;20079;-58
2023/09/26 01:12:11;;;;;;;5.38;4.88;;;;;;;;;;5056935;28;20039;-58
2023/09/26 01:14:37;;;;;;;7.22;6.03;;;;;;;;;;5056820;28;20017;-57
2023/09/26 01:17:03;;;;;;;5.97;5.38;;;;;;;;;;5056259;28;20375;-57
2023/09/26 01:19:29;;;;;;;6.40;5.75;;;;;;;;;;5057053;28;20115;-57
2023/09/26 01:21:55;;;;;;;7.75;6.55;;;;;;;;;;5055786;28;20463;-57
2023/09/26 01:24:21;;;;;;;6.95;6.28;;;;;;;;;;5056473;28;20040;-57
2023/09/26 01:26:47;;;;;;;6.45;5.82;;;;;;;;;;5056079;28;20398;-57
2023/09/26 01:29:13;;;;;;;6.38;5.78;;;;;;;;;;5056625;28;20517;-57
2023/09/26 01:31:39;;;;;;;8.30;6.25;;;;;;;;;;5056316;28;20366;-57
2023/09/26 01:34:05;;;;;;;7.47;6.78;;;;;;;;;;5055886;28;20064;-57
2023/09/26 01:36:31;;;;;;;6.15;5.60;;;;;;;;;;5056536;28;20122;-57
2023/09/26 01:38:57;;;;;;;6.88;5.97;;;;;;;;;;5056395;28;20402;-57
2023/09/26 01:41:24;;;;;;;7.05;6.22;;;;;;;;;;5056344;28;20025;-57
2023/09/26 01:43:50;;;;;;;6.78;6.10;;;;;;;;;;5055624;28;20124;-58
2023/09/26 01:46:18;;;;;;;7.65;6.60;;;;;;;;;;5055738;28;20025;-57
2023/09/26 01:48:44;;;;;;;6.82;6.15;;;;;;;;;;5055359;28;20371;-57
2023/09/26 01:51:10;;;;;;;6.63;6.00;;;;;;;;;;5055183;28;20044;-57
2023/09/26 01:53:36;;;;;;;6.80;6.10;;;;;;;;;;5055447;28;20519;-57
2023/09/26 01:56:02;;;;;;;6.50;5.78;;;;;;;;;;5056291;28;20111;-57
2023/09/26 01:58:28;;;;;;;6.90;6.20;;;;;;;;;;5055613;28;20107;-57
2023/09/26 02:00:54;;;;;;;6.90;6.05;;;;;;;;;;5056055;28;20419;-58
2023/09/26 02:03:21;;;;;;;6.82;6.10;;;;;;;;;;5055328;28;20123;-57
2023/09/26 02:05:47;;;;;;;7.47;5.85;;;;;;;;;;5055907;28;20025;-57
2023/09/26 02:08:15;;;;;;;6.00;5.35;;;;;;;;;;5055902;28;20025;-59
2023/09/26 02:10:41;;;;;;;8.40;6.57;;;;;;;;;;5055825;28;20401;-59
2023/09/26 02:13:07;;;;;;;6.80;5.90;;;;;;;;;;5055790;28;20052;-59
2023/09/26 02:15:33;;;;;;;7.05;6.45;;;;;;;;;;5055227;28;20374;-59
2023/09/26 02:17:59;;;;;;;6.95;6.25;;;;;;;;;;5055186;28;20021;-59
2023/09/26 02:20:24;;;;;;;8.43;6.53;;;;;;;;;;5055919;28;20028;-59
2023/09/26 02:22:51;;;;;;;7.43;6.38;;;;;;;;;;5054752;28;20029;-58
2023/09/26 02:25:19;;;;;;;7.32;6.07;;;;;;;;;;5054910;28;20025;-57
2023/09/26 02:27:45;;;;;;;9.15;6.18;;;;;;;;;;5055233;28;20029;-58
2023/09/26 02:30:13;;;;;;;7.65;6.85;;;;;;;;;;5054069;28;20451;-57
2023/09/26 02:32:39;;;;;;;7.43;6.63;;;;;;;;;;5055415;28;20033;-57
2023/09/26 02:35:07;;;;;;;7.63;6.78;;;;;;;;;;5055255;28;20048;-57
2023/09/26 02:37:33;;;;;;;7.82;6.72;;;;;;;;;;5055510;28;20032;-57
2023/09/26 02:40:00;;;;;;;8.65;7.75;;;;;;;;;;5055316;28;20100;-57
2023/09/26 02:42:26;;;;;;;7.50;6.78;;;;;;;;;;5054240;28;20502;-58
2023/09/26 02:44:52;;;;;;;8.30;7.50;;;;;;;;;;5054627;28;20107;-57
2023/09/26 02:47:18;;;;;;;7.45;6.68;;;;;;;;;;5055039;28;20470;-57
2023/09/26 02:49:44;;;;;;;7.55;6.60;;;;;;;;;;5055128;28;20025;-57
2023/09/26 02:52:10;;;;;;;9.32;7.30;;;;;;;;;;5054984;28;20021;-58
2023/09/26 02:54:36;;;;;;;8.00;7.13;;;;;;;;;;5054311;28;20021;-57
2023/09/26 02:57:02;;;;;;;10.77;7.20;;;;;;;;;;5054834;28;20021;-58
2023/09/26 02:59:29;;;;;;;8.70;7.78;;;;;;;;;;5054901;28;20055;-57
2023/09/26 03:01:55;;;;;;;8.63;7.82;;;;;;;;;;5054931;28;20108;-57
2023/09/26 03:04:21;;;;;;;8.27;7.35;;;;;;;;;;5054177;28;20505;-57
2023/09/26 03:06:47;;;;;;;9.00;8.10;;;;;;;;;;5054174;28;20025;-57
2023/09/26 03:09:15;;;;;;;10.52;8.85;;;;;;;;;;5054671;28;20025;-57
2023/09/26 03:11:41;;;;;;;9.68;8.70;;;;;;;;;;5054126;28;20029;-57
2023/09/26 03:14:07;;;;;;;9.85;8.52;;;;;;;;;;5053955;28;20031;-57
2023/09/26 03:16:33;;;;;;;9.80;8.75;;;;;;;;;;5053996;28;20028;-57
2023/09/26 03:18:59;;;;;;;9.95;8.55;;;;;;;;;;5054449;28;20413;-58
2023/09/26 03:21:25;;;;;;;12.05;10.52;;;;;;;;;;5054745;28;20051;-57
2023/09/26 03:23:51;;;;;;;11.15;10.02;;;;;;;;;;5053989;28;20044;-57
2023/09/26 03:26:17;;;;;;;11.85;10.65;;;;;;;;;;5053900;28;20451;-57
2023/09/26 03:28:43;;;;;;;11.57;10.07;;;;;;;;;;5053819;28;20029;-57
2023/09/26 03:31:09;;;;;;;11.13;10.07;;;;;;;;;;5054122;28;20047;-57
2023/09/26 03:33:35;;;;;;;11.50;10.30;;;;;;;;;;5053996;28;20086;-57
2023/09/26 03:36:03;;;;;;;12.65;11.30;;;;;;;;;;5053610;28;20445;-57
2023/09/26 03:38:29;;;;;;;12.85;11.55;;;;;;;;;;5054094;28;20040;-58
2023/09/26 03:40:58;;;;;;;14.48;11.38;;;;;;;;;;5053304;28;20021;-58
2023/09/26 03:43:27;;;;;;;14.18;12.75;;;;;;;;;;5053242;28;20423;-58
2023/09/26 03:45:54;;;;;;;13.55;12.20;;;;;;;;;;5053547;28;20024;-57
2023/09/26 03:48:20;;;;;;;14.25;12.75;;;;;;;;;;5053520;28;20040;-57
2023/09/26 03:50:47;;;;;;;13.13;11.77;;;;;;;;;;5053605;28;20374;-57
2023/09/26 03:53:13;;;;;;;11.90;10.80;;;;;;;;;;5053418;28;20451;-57
2023/09/26 03:55:39;;;;;;;10.43;9.43;;;;;;;;;;5053417;28;20040;-57
2023/09/26 03:58:06;;;;;;;10.05;9.05;;;;;;;;;;5053471;28;20029;-57
2023/09/26 04:00:32;;;;;;;10.20;9.13;;;;;;;;;;5053939;28;20029;-58
2023/09/26 04:02:58;;;;;;;9.38;8.35;;;;;;;;;;5053950;28;20033;-57
2023/09/26 04:05:25;;;;;;;9.88;8.70;;;;;;;;;;5053447;28;20097;-57
2023/09/26 04:07:51;;;;;;;10.23;9.13;;;;;;;;;;5053449;28;20028;-57
2023/09/26 04:10:17;;;;;;;10.18;9.25;;;;;;;;;;5054198;28;20017;-58
2023/09/26 04:12:43;;;;;;;8.50;7.60;;;;;;;;;;5055240;28;20037;-57
2023/09/26 04:15:09;;;;;;;10.82;9.65;;;;;;;;;;5057581;28;20032;-57
2023/09/26 04:17:36;;;;;;;12.10;9.68;;;;;;;;;;5057120;28;20538;-57
2023/09/26 04:20:10;;;;;;;10.40;8.48;;;;;;;;;;5058013;28;20025;-57
2023/09/26 04:22:37;;;;;;;9.90;8.27;;;;;;;;;;5058057;28;20063;-57
2023/09/26 04:25:03;;;;;;;9.10;8.20;;;;;;;;;;5057363;28;20374;-57
2023/09/26 04:27:29;;;;;;;9.20;8.30;;;;;;;;;;5057817;28;20033;-57
2023/09/26 04:29:55;;;;;;;9.10;8.18;;;;;;;;;;5057383;28;20021;-58
2023/09/26 04:32:21;;;;;;;8.38;7.57;;;;;;;;;;5057278;28;20032;-57
2023/09/26 04:34:47;;;;;;;11.35;8.02;;;;;;;;;;5057049;28;20047;-57
2023/09/26 04:37:13;;;;;;;10.30;8.13;;;;;;;;;;5057329;28;20467;-57
2023/09/26 04:39:38;;;;;;;8.82;7.88;;;;;;;;;;5057105;28;20474;-57
2023/09/26 04:42:04;;;;;;;9.70;8.40;;;;;;;;;;5057434;28;20025;-57
2023/09/26 04:44:30;;;;;;;8.90;8.00;;;;;;;;;;5057080;28;20060;-58
2023/09/26 04:46:56;;;;;;;8.07;7.28;;;;;;;;;;5057216;28;20025;-59
2023/09/26 04:49:22;;;;;;;8.18;7.35;;;;;;;;;;5057000;28;20068;-59
2023/09/26 04:51:48;;;;;;;8.88;6.85;;;;;;;;;;5056879;28;20063;-59
2023/09/26 04:54:15;;;;;;;8.70;7.90;;;;;;;;;;5056776;28;20033;-59
2023/09/26 04:56:40;;;;;;;7.20;6.50;;;;;;;;;;5056753;28;20052;-59
2023/09/26 04:59:06;;;;;;;9.07;7.47;;;;;;;;;;5056910;28;20060;-59
2023/09/26 05:01:32;;;;;;;7.70;6.45;;;;;;;;;;5056917;28;20508;-59
2023/09/26 05:03:58;;;;;;;7.50;6.78;;;;;;;;;;5056583;28;20360;-59
2023/09/26 05:06:24;;;;;;;8.50;5.88;;;;;;;;;;5056436;28;20120;-59
2023/09/26 05:08:50;;;;;;;6.53;5.93;;;;;;;;;;5056488;28;20028;-59
2023/09/26 05:11:16;;;;;;;6.88;6.15;;;;;;;;;;5056750;28;20025;-59
2023/09/26 05:13:45;;;;;;;6.75;6.05;;;;;;;;;;5056503;28;20113;-59
2023/09/26 05:16:13;;;;;;;7.20;6.50;;;;;;;;;;5056433;28;20029;-59
2023/09/26 05:18:39;;;;;;;6.72;6.13;;;;;;;;;;5055920;28;20029;-59
2023/09/26 05:21:08;;;;;;;7.22;5.75;;;;;;;;;;5056765;28;20036;-59
2023/09/26 05:23:34;;;;;;;6.78;6.00;;;;;;;;;;5055771;28;20044;-59
2023/09/26 05:26:07;;;;;;;6.50;5.82;;;;;;;;;;5055660;28;20056;-59
2023/09/26 05:28:33;;;;;;;6.25;5.65;;;;;;;;;;5056098;28;20048;-59
2023/09/26 05:30:59;;;;;;;8.93;6.93;;;;;;;;;;5056269;28;20037;-59
2023/09/26 05:33:25;;;;;;;7.82;6.63;;;;;;;;;;5056474;28;20029;-59
2023/09/26 05:35:53;;;;;;;7.68;6.75;;;;;;;;;;5056093;28;20049;-59
2023/09/26 05:38:19;;;;;;;8.00;7.25;;;;;;;;;;5056538;28;20048;-59
2023/09/26 05:40:45;;;;;;;7.25;6.55;;;;;;;;;;5055971;28;20032;-59
2023/09/26 05:43:11;;;;;;;6.35;5.72;;;;;;;;;;5055431;28;20029;-59
2023/09/26 05:45:37;;;;;;;7.10;6.40;;;;;;;;;;5056319;28;20423;-59
2023/09/26 05:48:04;;;;;;;6.63;6.03;;;;;;;;;;5055724;28;20068;-59
2023/09/26 05:50:30;;;;;;;6.93;6.10;;;;;;;;;;5056350;28;20355;-59
2023/09/26 05:52:56;;;;;;;6.47;5.57;;;;;;;;;;5055651;28;20112;-59
2023/09/26 05:55:22;;;;;;;5.97;5.38;;;;;;;;;;5056104;28;20024;-59
2023/09/26 05:57:48;;;;;;;6.32;5.72;;;;;;;;;;5056004;28;20083;-59
2023/09/26 06:00:14;;;;;;;6.55;5.57;;;;;;;;;;5055992;28;20363;-59
2023/09/26 06:02:40;;;;;;;6.93;5.70;;;;;;;;;;5055506;28;20067;-59
2023/09/26 06:05:06;;;;;;;6.57;5.88;;;;;;;;;;5055521;28;20476;-59
2023/09/26 06:07:32;;;;;;;6.13;5.50;;;;;;;;;;5055671;28;20107;-59
2023/09/26 06:09:58;;;;;;;6.68;6.05;;;;;;;;;;5055725;28;20106;-59
2023/09/26 06:12:24;;;;;;;6.50;5.90;;;;;;;;;;5055284;28;20029;-59
2023/09/26 06:14:51;;;;;;;8.55;6.30;;;;;;;;;;5055808;28;20117;-59
2023/09/26 06:17:16;;;;;;;6.20;5.60;;;;;;;;;;5054786;28;20387;-59
2023/09/26 06:19:46;;;;;;;7.00;6.13;;;;;;;;;;5055705;28;20029;-59
2023/09/26 06:22:13;;;;;;;8.95;5.95;;;;;;;;;;5055764;28;20036;-59
2023/09/26 06:24:38;;;;;;;5.07;4.63;;;;;;;;;;5054987;28;20035;-59
2023/09/26 06:27:04;;;;;;;7.53;6.43;;;;;;;;;;5055324;28;20522;-59
2023/09/26 06:29:30;;;;;;;6.03;5.43;;;;;;;;;;5055337;28;20025;-59
2023/09/26 06:31:57;;;;;;;6.93;6.22;;;;;;;;;;5055551;28;20094;-59
2023/09/26 06:34:23;;;;;;;6.78;5.97;;;;;;;;;;5054414;28;20542;-60
2023/09/26 06:36:52;;;;;;;9.30;5.88;;;;;;;;;;5055371;28;20079;-59
2023/09/26 06:39:18;;;;;;;6.80;6.05;;;;;;;;;;5054849;28;20025;-59
2023/09/26 06:41:44;;;;;;;6.50;5.85;;;;;;;;;;5055151;28;20032;-59
2023/09/26 06:44:10;;;;;;;7.03;5.90;;;;;;;;;;5054404;28;20033;-59
2023/09/26 06:46:36;;;;;;;5.70;5.10;;;;;;;;;;5054660;28;20451;-57
2023/09/26 06:49:03;;;;;;;7.07;6.00;;;;;;;;;;5054567;28;20029;-57
2023/09/26 06:51:33;;;;;;;7.20;5.32;;;;;;;;;;5055114;28;20363;-57
2023/09/26 06:53:59;;;;;;;7.97;5.95;;;;;;;;;;5054356;28;20021;-57
2023/09/26 06:56:25;;;;;;;6.28;4.72;;;;;;;;;;5054931;28;20504;-57
2023/09/26 06:58:51;;;;;;;6.50;4.93;;;;;;;;;;5054325;28;20049;-57
2023/09/26 07:01:18;;;;;;;5.60;5.10;;;;;;;;;;5054673;28;20021;-57
2023/09/26 07:03:44;;;;;;;5.82;5.25;;;;;;;;;;5054135;28;20047;-59
2023/09/26 07:06:11;;;;;;;5.10;4.60;;;;;;;;;;5054153;28;20074;-59
2023/09/26 07:08:38;;;;;;;6.50;5.47;;;;;;;;;;5052717;28;20032;-59
2023/09/26 07:11:04;;;;;;;5.22;4.53;;;;;;;;;;5054659;28;20406;-57
2023/09/26 07:13:30;;;;;;;5.72;5.13;;;;;;;;;;5054079;28;20048;-57
2023/09/26 07:15:59;;;;;;;5.72;5.15;;;;;;;;;;5054126;28;20021;-59
2023/09/26 07:18:25;;;;;;;5.55;4.93;;;;;;;;;;5054586;28;20085;-59
2023/09/26 07:20:51;;;;;;;5.80;5.05;;;;;;;;;;5054677;28;20410;-59
2023/09/26 07:23:17;;;;;;;5.43;4.93;;;;;;;;;;5053878;28;20039;-60
2023/09/26 07:25:43;;;;;;;5.93;5.07;;;;;;;;;;5054801;28;20021;-60
2023/09/26 07:28:10;;;;;;;5.93;4.90;;;;;;;;;;5054239;28;20108;-60
2023/09/26 07:30:36;;;;;;;7.07;5.35;;;;;;;;;;5054776;28;20116;-59
2023/09/26 07:33:02;;;;;;;5.53;4.70;;;;;;;;;;5053927;28;20052;-59
2023/09/26 07:35:28;;;;;;;7.88;5.78;;;;;;;;;;5053908;28;20053;-59
2023/09/26 07:37:55;;;;;;;5.03;4.53;;;;;;;;;;5054266;28;20033;-59
2023/09/26 07:40:22;;;;;;;7.00;5.90;;;;;;;;;;5054407;28;20371;-59
2023/09/26 07:42:48;;;;;;;6.38;5.75;;;;;;;;;;5053709;28;20124;-59
2023/09/26 07:45:16;;;;;;;7.00;5.47;;;;;;;;;;5053756;28;20463;-59
2023/09/26 07:47:43;;;;;;;5.13;4.55;;;;;;;;;;5053719;28;20354;-59
2023/09/26 07:50:09;;;;;;;5.65;4.63;;;;;;;;;;5054270;28;20021;-59
2023/09/26 07:52:35;;;;;;;5.72;5.10;;;;;;;;;;5053961;28;20481;-59
2023/09/26 07:55:01;;;;;;;5.45;4.53;;;;;;;;;;5053913;28;20104;-59
2023/09/26 07:57:27;;;;;;;5.80;4.68;;;;;;;;;;5053778;28;20106;-59
2023/09/26 07:59:53;;;;;;;6.07;4.47;;;;;;;;;;5053456;28;20072;-59
2023/09/26 08:02:20;;;;;;;6.68;4.93;;;;;;;;;;5053837;28;20036;-59
2023/09/26 08:04:46;;;;;;;7.53;5.55;;;;;;;;;;5053946;28;20025;-59
2023/09/26 08:07:12;;;;;;;5.20;4.55;;;;;;;;;;5053943;28;20116;-59
2023/09/26 08:09:38;;;;;;;7.00;5.50;;;;;;;;;;5054257;28;20451;-59
2023/09/26 08:12:04;;;;;;;6.07;5.45;;;;;;;;;;5053919;28;20138;-57
2023/09/26 08:14:30;;;;;;;5.45;4.75;;;;;;;;;;5053316;28;20025;-57
2023/09/26 08:16:56;;;;;;;4.93;4.43;;;;;;;;;;5053239;28;20017;-57
2023/09/26 08:19:22;;;;;;;6.00;5.38;;;;;;;;;;5053873;28;20028;-57
2023/09/26 08:21:48;;;;;;;12.40;5.65;;;;;;;;;;5053400;28;20358;-57
2023/09/26 08:24:14;;;;;;;5.00;4.35;;;;;;;;;;5053428;28;20112;-58
2023/09/26 08:26:40;;;;;;;5.60;5.07;;;;;;;;;;5053276;28;20516;-58
2023/09/26 08:29:07;;;;;;;5.72;5.13;;;;;;;;;;5053586;28;20090;-57
2023/09/26 08:31:35;;;;;;;6.25;5.07;;;;;;;;;;5053528;28;20078;-57
2023/09/26 08:34:01;;;;;;;7.50;4.50;;;;;;;;;;5052999;28;20075;-58
2023/09/26 08:36:27;;;;;;;6.72;4.80;;;;;;;;;;5053841;28;20057;-57
2023/09/26 08:38:55;;;;;;;4.82;4.32;;;;;;;;;;5053526;28;20074;-57
2023/09/26 08:41:21;;;;;;;5.97;5.07;;;;;;;;;;5053782;28;20070;-57
2023/09/26 08:43:47;;;;;;;11.68;4.93;;;;;;;;;;5052820;28;20033;-57
2023/09/26 08:46:13;;;;;;;5.85;5.25;;;;;;;;;;5053420;28;20470;-58
2023/09/26 08:48:39;;;;;;;5.85;4.82;;;;;;;;;;5053435;28;20029;-58
2023/09/26 08:51:05;;;;;;;6.20;5.55;;;;;;;;;;5053650;28;20107;-58
2023/09/26 08:53:31;;;;;;;6.30;5.25;;;;;;;;;;5053093;28;20028;-58
2023/09/26 08:55:57;;;;;;;5.78;5.10;;;;;;;;;;5053534;28;20075;-58
2023/09/26 08:58:25;;;;;;;7.13;5.32;;;;;;;;;;5054363;28;20098;-58
2023/09/26 09:00:50;;;;;;;4.22;3.80;;;;;;;;;;5057263;28;20033;-57
2023/09/26 09:03:16;;;;;;;8.68;4.85;;;;;;;;;;5056596;28;20036;-58
2023/09/26 09:05:44;;;;;;;6.97;5.15;;;;;;;;;;5056885;28;20124;-58
2023/09/26 09:08:16;;;;;;;5.63;5.13;;;;;;;;;;5057276;28;20054;-58
2023/09/26 09:10:53;;;;;;;4.97;4.30;;;;;;;;;;5056873;28;20075;-58
2023/09/26 09:13:29;;;;;;;7.47;4.80;;;;;;;;;;5056745;28;20025;-58
2023/09/26 09:16:15;;;;;;;5.85;4.85;;;;;;;;;;5057243;28;20021;-58
2023/09/26 09:18:43;;;;;;;5.68;5.00;;;;;;;;;;5056534;28;20059;-58
2023/09/26 09:21:20;;;;;;;6.10;4.82;;;;;;;;;;5056830;28;20105;-58
2023/09/26 09:23:46;;;;;;;5.07;4.38;;;;;;;;;;5056588;28;20032;-58
2023/09/26 09:26:12;;;;;;;7.07;4.57;;;;;;;;;;5055971;28;20475;-58
2023/09/26 09:28:38;;;;;;;5.43;4.47;;;;;;;;;;5056208;28;20029;-58
2023/09/26 09:31:04;;;;;;;7.40;4.47;;;;;;;;;;5056669;28;20459;-58
2023/09/26 09:33:31;;;;;;;7.00;5.22;;;;;;;;;;5056150;28;20057;-58
2023/09/26 09:35:58;;;;;;;4.45;3.92;;;;;;;;;;5055595;28;20060;-58
2023/09/26 09:38:24;;;;;;;5.28;4.78;;;;;;;;;;5055741;28;20056;-58
2023/09/26 09:40:51;;;;;;;5.05;4.55;;;;;;;;;;5056508;28;20124;-58
2023/09/26 09:43:17;;;;;;;8.35;4.40;;;;;;;;;;5055851;28;20035;-58
2023/09/26 09:45:44;;;;;;;4.78;3.90;;;;;;;;;;5055863;28;20036;-58
2023/09/26 09:48:10;;;;;;;6.82;4.82;;;;;;;;;;5055641;28;20025;-57
2023/09/26 09:50:37;;;;;;;4.10;3.70;;;;;;;;;;5056618;28;20052;-57
2023/09/26 09:53:03;;;;;;;5.55;4.35;;;;;;;;;;5055607;28;20021;-58
2023/09/26 09:55:33;;;;;;;4.10;3.60;;;;;;;;;;5055719;28;20087;-58
2023/09/26 09:58:03;;;;;;;5.10;3.03;;;;;;;;;;5055680;28;20109;-58
2023/09/26 10:00:31;;;;;;;6.05;4.50;;;;;;;;;;5056172;28;20029;-58
2023/09/26 10:03:00;;;;;;;4.78;4.05;;;;;;;;;;5056042;28;20037;-58
2023/09/26 10:05:27;;;;;;;4.40;3.20;;;;;;;;;;5055453;28;20033;-58
2023/09/26 10:07:54;;;;;;;3.50;2.53;;;;;;;;;;5055399;28;20025;-58
2023/09/26 10:10:20;;;;;;;3.20;2.60;;;;;;;;;;5054585;28;20083;-58
2023/09/26 10:12:46;;;;;;;3.22;2.47;;;;;;;;;;5055091;28;20025;-58
2023/09/26 10:15:13;;;;;;;2.70;2.15;;;;;;;;;;5055378;28;20082;-58
2023/09/26 10:17:42;;;;;;;3.67;2.45;;;;;;;;;;5055195;28;20040;-58
2023/09/26 10:20:12;;;;;;;2.30;1.60;;;;;;;;;;5055187;28;20029;-58
2023/09/26 10:22:41;;;;;;;2.88;1.90;;;;;;;;;;5055417;28;20029;-58
2023/09/26 10:25:07;;;;;;;2.63;2.25;;;;;;;;;;5055501;28;20100;-58
2023/09/26 10:27:33;;;;;;;2.70;1.73;;;;;;;;;;5055880;28;20028;-58
2023/09/26 10:30:02;;;;;;;3.40;1.95;;;;;;;;;;5055652;28;20025;-58
2023/09/26 10:32:32;;;;;;;2.40;1.90;;;;;;;;;;5055009;28;20024;-58
2023/09/26 10:34:59;;;;;;;3.35;2.60;;;;;;;;;;5055199;28;20137;-58
2023/09/26 10:37:28;;;;;;;3.50;2.17;;;;;;;;;;5054891;28;20036;-58
2023/09/26 10:39:54;;;;;;;2.38;1.98;;;;;;;;;;5055358;28;20051;-58
2023/09/26 10:42:24;;;;;;;3.05;2.05;;;;;;;;;;5054406;28;20475;-58
2023/09/26 10:44:51;;;;;;;3.67;2.17;;;;;;;;;;5055345;28;20021;-58
2023/09/26 10:47:17;;;;;;;3.03;2.38;;;;;;;;;;5054690;28;20025;-58
2023/09/26 10:49:43;;;;;;;3.45;2.50;;;;;;;;;;5055302;28;20029;-58
2023/09/26 10:52:11;;;;;;;2.95;2.17;;;;;;;;;;5054428;28;20025;-58
2023/09/26 10:54:41;;;;;;;2.63;2.20;;;;;;;;;;5054235;28;20105;-58
2023/09/26 10:57:07;;;;;;;3.30;2.00;;;;;;;;;;5054520;28;20115;-58
2023/09/26 10:59:33;;;;;;;2.65;1.70;;;;;;;;;;5055285;28;20059;-58
2023/09/26 11:02:00;;;;;;;2.85;2.15;;;;;;;;;;5054390;28;20025;-58
2023/09/26 11:04:31;;;;;;;2.55;1.70;;;;;;;;;;5055141;28;20044;-58
2023/09/26 11:06:56;;;;;;;;;;;;;;;;;;5055620;28;20029;-58
2023/09/26 11:09:23;;;;;;;5.05;1.60;;;;;;;;;;5054923;28;19962;-58
2023/09/26 11:11:49;;;;;;;2.90;1.65;;;;;;;;;;5054778;28;20501;-58
2023/09/26 11:14:15;;;;;;;2.58;1.65;;;;;;;;;;5054674;28;20029;-58
2023/09/26 11:16:42;;;;;;;3.30;1.90;;;;;;;;;;5054080;28;20370;-58
2023/09/26 11:19:09;;;;;;;3.05;1.73;;;;;;;;;;5054695;28;20029;-58
2023/09/26 11:21:35;;;;;;;3.53;1.48;;;;;;;;;;5054051;28;20032;-58
2023/09/26 11:24:17;;;;;;;2.00;1.33;;;;;;;;;;5053758;28;20530;-58
2023/09/26 11:26:44;;;;;;;2.90;1.40;;;;;;;;;;5054501;28;20431;-58
2023/09/26 11:29:10;;;;;;;2.33;1.23;;;;;;;;;;5054283;28;20044;-58
2023/09/26 11:31:36;;;;;;;3.00;2.05;;;;;;;;;;5053910;28;20074;-58
2023/09/26 11:34:02;;;;;;;2.65;1.33;;;;;;;;;;5053853;28;20088;-58
2023/09/26 11:36:28;;;;;;;1.88;1.05;;;;;;;;;;5054185;28;20352;-58
2023/09/26 11:38:54;;;;;;;2.40;0.77;;;;;;;;;;5053827;28;20024;-58
2023/09/26 11:41:21;;;;;;;2.47;1.42;;;;;;;;;;5053818;28;20470;-58
2023/09/26 11:43:47;;;;;;;1.58;0.73;;;;;;;;;;5053257;28;20475;-58
2023/09/26 11:46:14;;;;;;;1.90;1.15;;;;;;;;;;5053752;28;20029;-58
2023/09/26 11:48:43;;;;;;;2.42;1.25;;;;;;;;;;5053693;28;20021;-58
2023/09/26 11:51:09;;;;;;;2.33;1.23;;;;;;;;;;5053722;28;20032;-58
2023/09/26 11:53:35;;;;;;;2.63;1.10;;;;;;;;;;5053502;28;20025;-58
2023/09/26 11:56:05;;;;;;;1.15;0.63;;;;;;;;;;5053904;28;20096;-58
2023/09/26 11:58:32;;;;;;;2.15;1.30;;;;;;;;;;5054082;28;20086;-58
2023/09/26 12:00:58;;;;;;;1.75;1.10;;;;;;;;;;5054325;28;20033;-58
2023/09/26 12:03:24;;;;;;;2.20;1.27;;;;;;;;;;5053963;28;20379;-58
2023/09/26 12:05:50;;;;;;;2.08;1.10;;;;;;;;;;5053373;28;20021;-58
2023/09/26 12:08:16;;;;;;;2.10;1.48;;;;;;;;;;5053745;28;20025;-58
2023/09/26 12:10:43;;;;;;;2.70;1.33;;;;;;;;;;5053206;28;20021;-58
2023/09/26 12:13:09;;;;;;;3.45;1.27;;;;;;;;;;5053345;28;20471;-58
2023/09/26 12:15:35;;;;;;;1.65;1.00;;;;;;;;;;5053647;28;20028;-58
2023/09/26 12:18:01;;;;;;;2.22;1.23;;;;;;;;;;5053065;28;20475;-58
2023/09/26 12:20:28;;;;;;;2.00;0.98;;;;;;;;;;5054179;28;20017;-58
2023/09/26 12:22:56;;;;;;;4.05;1.13;;;;;;;;;;5053270;28;20062;-58
2023/09/26 12:25:23;;;;;;;1.50;0.95;;;;;;;;;;5053491;28;20029;-58
2023/09/26 12:27:53;;;;;;;1.67;0.98;;;;;;;;;;5053297;28;20021;-58
2023/09/26 12:30:19;;;;;;;2.50;1.00;;;;;;;;;;5053816;28;20025;-58
2023/09/26 12:32:45;;;;;;;2.95;0.98;;;;;;;;;;5053271;28;20360;-58
2023/09/26 12:35:12;;;;;;;1.77;1.08;;;;;;;;;;5056656;28;20506;-58
2023/09/26 12:37:40;;;;;;;3.00;1.35;;;;;;;;;;5057105;28;20013;-58
2023/09/26 12:40:09;;;;;;;2.85;1.00;;;;;;;;;;5057958;28;20059;-58
2023/09/26 12:42:35;;;;;;;2.25;0.90;;;;;;;;;;5056642;28;20025;-58
2023/09/26 12:45:01;;;;;;;1.83;1.23;;;;;;;;;;5056683;28;20056;-58
2023/09/26 12:47:27;;;;;;;1.50;1.00;;;;;;;;;;5056566;28;20064;-58
2023/09/26 12:49:53;;;;;;;1.65;0.63;;;;;;;;;;5057370;28;20028;-58
2023/09/26 12:52:19;;;;;;;3.38;1.13;;;;;;;;;;5056481;28;20100;-58
2023/09/26 12:54:48;;;;;;;1.60;0.80;;;;;;;;;;5056961;28;20036;-58
2023/09/26 12:57:14;;;;;;;3.55;1.38;;;;;;;;;;5057313;28;20048;-58
2023/09/26 12:59:40;;;;;;;2.38;1.17;;;;;;;;;;5057429;28;20445;-58
2023/09/26 13:02:07;;;;;;;3.45;1.27;;;;;;;;;;5056749;28;20528;-58
2023/09/26 13:04:33;;;;;;;2.28;1.30;;;;;;;;;;5057080;28;20032;-58
2023/09/26 13:06:59;;;;;;;2.10;1.30;;;;;;;;;;5056381;28;20025;-58
2023/09/26 13:09:25;;;;;;;1.52;0.70;;;;;;;;;;5057299;28;20031;-58
2023/09/26 13:11:51;;;;;;;1.70;0.90;;;;;;;;;;5056820;28;20188;-58
2023/09/26 13:14:17;;;;;;;1.45;0.88;;;;;;;;;;5056568;28;20083;-58
2023/09/26 13:16:43;;;;;;;1.80;1.00;;;;;;;;;;5056222;28;20025;-58
2023/09/26 13:19:09;;;;;;;1.00;0.57;;;;;;;;;;5056858;28;20029;-58
2023/09/26 13:21:35;;;;;;;1.70;0.90;;;;;;;;;;5056414;28;20436;-58
2023/09/26 13:24:01;;;;;;;1.25;0.80;;;;;;;;;;5055900;28;20057;-58
2023/09/26 13:26:28;;;;;;;1.42;0.88;;;;;;;;;;5056820;28;20087;-58
2023/09/26 13:28:54;;;;;;;1.00;0.60;;;;;;;;;;5056753;28;20035;-58
2023/09/26 13:31:20;;;;;;;1.38;0.70;;;;;;;;;;5056791;28;20028;-58
2023/09/26 13:33:45;;;;;;;1.92;0.80;;;;;;;;;;5056085;28;20028;-58
2023/09/26 13:36:11;;;;;;;1.73;0.80;;;;;;;;;;5056216;28;20044;-58
2023/09/26 13:38:37;;;;;;;1.23;0.55;;;;;;;;;;5056195;28;20021;-58
2023/09/26 13:41:05;;;;;;;0.90;0.47;;;;;;;;;;5056131;28;20054;-58
2023/09/26 13:43:31;;;;;;;1.20;0.63;;;;;;;;;;5055763;28;20040;-58
2023/09/26 13:45:57;;;;;;;1.50;0.65;;;;;;;;;;5054943;28;20408;-58
2023/09/26 13:48:23;;;;;;;0.93;0.45;;;;;;;;;;5056291;28;20104;-58
2023/09/26 13:50:49;;;;;;;7.07;0.80;;;;;;;;;;5055807;28;20028;-58
2023/09/26 13:53:15;;;;;;;1.50;0.70;;;;;;;;;;5055884;28;20370;-58
2023/09/26 13:55:41;;;;;;;0.93;0.50;;;;;;;;;;5055717;28;20029;-58
2023/09/26 13:58:08;;;;;;;2.03;0.68;;;;;;;;;;5055155;28;20372;-58
2023/09/26 14:00:36;;;;;;;1.38;0.60;;;;;;;;;;5056124;28;20056;-58
2023/09/26 14:03:02;;;;;;;1.23;0.47;;;;;;;;;;5055324;28;20036;-58
2023/09/26 14:05:28;;;;;;;1.13;0.60;;;;;;;;;;5055202;28;20025;-58
2023/09/26 14:07:54;;;;;;;1.98;0.60;;;;;;;;;;5055752;28;20013;-58
2023/09/26 14:10:22;;;;;;;1.27;0.55;;;;;;;;;;5055377;28;20075;-58
2023/09/26 14:12:48;;;;;;;1.45;0.75;;;;;;;;;;5055716;28;20025;-58
2023/09/26 14:15:14;;;;;;;1.17;0.60;;;;;;;;;;5054970;28;20532;-58
2023/09/26 14:17:40;;;;;;;1.00;0.52;;;;;;;;;;5055530;28;20047;-58
2023/09/26 14:20:09;;;;;;;1.38;0.50;;;;;;;;;;5055391;28;20108;-58
2023/09/26 14:22:37;;;;;;;1.05;0.50;;;;;;;;;;5054787;28;20063;-58
2023/09/26 14:25:03;;;;;;;1.65;1.08;;;;;;;;;;5055153;28;20146;-58
2023/09/26 14:27:29;;;;;;;1.30;0.70;;;;;;;;;;5054749;28;20021;-58
2023/09/26 14:30:02;;;;;;;1.30;0.63;;;;;;;;;;5054975;28;20044;-58
2023/09/26 14:32:28;;;;;;;1.25;0.77;;;;;;;;;;5055023;28;20039;-58
2023/09/26 14:34:53;;;;;;;1.05;0.43;;;;;;;;;;5054753;28;20135;-58
2023/09/26 14:37:19;;;;;;;1.35;0.65;;;;;;;;;;5054832;28;20024;-58